createdAt,value
2018-09-19T00:00:09.261Z,0.00
2018-09-19T00:01:09.238Z,0.00
2018-09-19T00:02:09.235Z,0.00
2018-09-19T00:03:09.313Z,0.00
2018-09-19T00:04:09.296Z,0.00
2018-09-19T00:05:09.325Z,0.00
2018-09-19T00:06:09.217Z,0.00
2018-09-19T00:07:09.295Z,0.00
2018-09-19T00:08:09.219Z,0.00
2018-09-19T00:09:09.296Z,0.00
2018-09-19T00:10:09.297Z,0.00
2018-09-19T00:11:09.226Z,0.00
2018-09-19T00:12:09.214Z,0.00
2018-09-19T00:13:09.297Z,0.00
2018-09-19T00:14:09.271Z,0.00
2018-09-19T00:15:09.308Z,0.00
2018-09-19T00:16:09.302Z,0.00
2018-09-19T00:17:09.164Z,0.00
2018-09-19T00:18:09.327Z,0.00
2018-09-19T00:19:09.257Z,0.00
2018-09-19T00:20:09.292Z,0.00
2018-09-19T00:21:09.234Z,0.00
2018-09-19T00:22:09.216Z,0.00
2018-09-19T00:23:09.216Z,0.00
2018-09-19T00:24:09.326Z,0.00
2018-09-19T00:25:09.224Z,0.00
2018-09-19T00:26:09.217Z,0.00
2018-09-19T00:27:09.350Z,0.00
2018-09-19T00:28:09.278Z,0.00
2018-09-19T00:29:09.341Z,0.00
2018-09-19T00:30:09.279Z,0.00
2018-09-19T00:31:09.343Z,0.00
2018-09-19T00:32:09.316Z,0.00
2018-09-19T00:33:09.232Z,0.00
2018-09-19T00:34:09.297Z,0.00
2018-09-19T00:35:09.283Z,0.00
2018-09-19T00:36:09.357Z,0.00
2018-09-19T00:37:09.317Z,0.00
2018-09-19T00:38:09.244Z,0.00
2018-09-19T00:39:09.316Z,0.00
2018-09-19T00:40:09.359Z,0.00
2018-09-19T00:41:09.242Z,0.00
2018-09-19T00:42:09.315Z,0.00
2018-09-19T00:43:09.195Z,0.00
2018-09-19T00:44:09.324Z,0.00
2018-09-19T00:45:09.249Z,0.00
2018-09-19T00:46:09.234Z,0.00
2018-09-19T00:47:09.328Z,0.00
2018-09-19T00:48:09.271Z,0.00
2018-09-19T00:49:09.284Z,0.00
2018-09-19T00:50:09.333Z,0.00
2018-09-19T00:51:09.333Z,0.00
2018-09-19T00:52:09.270Z,0.00
2018-09-19T00:53:09.267Z,0.00
2018-09-19T00:54:09.337Z,0.00
2018-09-19T00:55:09.335Z,0.00
2018-09-19T00:56:09.278Z,0.00
2018-09-19T00:57:09.329Z,0.00
2018-09-19T00:58:09.229Z,0.00
2018-09-19T00:59:09.321Z,0.00
2018-09-19T01:00:09.326Z,0.00
2018-09-19T01:01:09.210Z,0.00
2018-09-19T01:02:09.271Z,0.00
2018-09-19T01:03:09.256Z,0.00
2018-09-19T01:04:09.277Z,0.00
2018-09-19T01:05:09.281Z,0.00
2018-09-19T01:06:09.233Z,0.00
2018-09-19T01:07:09.282Z,0.00
2018-09-19T01:08:09.344Z,0.00
2018-09-19T01:09:09.283Z,0.00
2018-09-19T01:10:09.285Z,0.00
2018-09-19T01:11:09.287Z,0.00
2018-09-19T01:12:09.286Z,0.00
2018-09-19T01:13:09.283Z,0.00
2018-09-19T01:14:09.288Z,0.00
2018-09-19T01:15:09.357Z,0.00
2018-09-19T01:16:09.290Z,0.00
2018-09-19T01:17:09.352Z,0.00
2018-09-19T01:18:09.352Z,0.00
2018-09-19T01:19:09.290Z,0.00
2018-09-19T01:20:09.361Z,0.00
2018-09-19T01:21:09.291Z,0.00
2018-09-19T01:22:09.357Z,0.00
2018-09-19T01:23:09.289Z,0.00
2018-09-19T01:24:09.360Z,0.00
2018-09-19T01:25:09.359Z,0.00
2018-09-19T01:26:09.363Z,0.00
2018-09-19T01:27:09.363Z,0.00
2018-09-19T01:28:09.366Z,0.00
2018-09-19T01:29:09.419Z,0.00
2018-09-19T01:30:09.365Z,0.00
2018-09-19T01:31:09.362Z,0.00
2018-09-19T01:32:09.293Z,0.00
2018-09-19T01:33:09.301Z,0.00
2018-09-19T01:34:09.369Z,0.00
2018-09-19T01:35:09.365Z,0.00
2018-09-19T01:36:09.303Z,0.00
2018-09-19T01:37:09.297Z,0.00
2018-09-19T01:38:09.355Z,0.00
2018-09-19T01:39:09.265Z,0.00
2018-09-19T01:40:09.357Z,0.00
2018-09-19T01:41:09.267Z,0.00
2018-09-19T01:42:09.307Z,0.00
2018-09-19T01:43:09.297Z,0.00
2018-09-19T01:44:09.298Z,0.00
2018-09-19T01:45:09.266Z,0.00
2018-09-19T01:46:09.243Z,0.00
2018-09-19T01:47:09.371Z,0.00
2018-09-19T01:48:09.383Z,0.00
2018-09-19T01:49:09.377Z,0.00
2018-09-19T01:50:09.308Z,0.00
2018-09-19T01:51:09.337Z,0.00
2018-09-19T01:52:09.312Z,0.00
2018-09-19T01:53:09.446Z,0.00
2018-09-19T01:54:09.316Z,0.00
2018-09-19T01:55:09.351Z,0.00
2018-09-19T01:56:09.317Z,0.00
2018-09-19T01:57:09.319Z,0.00
2018-09-19T01:58:09.354Z,0.00
2018-09-19T01:59:09.343Z,0.00
2018-09-19T02:00:09.403Z,0.00
2018-09-19T02:01:09.336Z,0.00
2018-09-19T02:02:09.323Z,0.00
2018-09-19T02:03:09.467Z,0.00
2018-09-19T02:04:09.354Z,0.00
2018-09-19T02:05:09.344Z,0.00
2018-09-19T02:06:09.328Z,0.00
2018-09-19T02:07:09.387Z,0.00
2018-09-19T02:08:09.404Z,0.00
2018-09-19T02:09:09.388Z,0.00
2018-09-19T02:10:09.409Z,0.00
2018-09-19T02:11:09.394Z,0.00
2018-09-19T02:12:09.422Z,0.00
2018-09-19T02:13:09.314Z,0.00
2018-09-19T02:14:09.388Z,0.00
2018-09-19T02:15:09.411Z,0.00
2018-09-19T02:16:09.365Z,0.00
2018-09-19T02:17:09.421Z,0.00
2018-09-19T02:18:09.370Z,0.00
2018-09-19T02:19:09.421Z,0.00
2018-09-19T02:20:09.415Z,0.00
2018-09-19T02:21:09.303Z,0.00
2018-09-19T02:22:09.431Z,0.00
2018-09-19T02:23:09.430Z,0.00
2018-09-19T02:24:09.335Z,0.00
2018-09-19T02:25:09.397Z,0.00
2018-09-19T02:26:09.432Z,0.00
2018-09-19T02:27:09.404Z,0.00
2018-09-19T02:28:09.392Z,0.00
2018-09-19T02:29:09.428Z,0.00
2018-09-19T02:30:09.320Z,0.00
2018-09-19T02:31:09.407Z,0.00
2018-09-19T02:32:09.320Z,0.00
2018-09-19T02:33:09.344Z,0.00
2018-09-19T02:34:09.397Z,0.00
2018-09-19T02:35:09.320Z,0.00
2018-09-19T02:36:09.459Z,0.00
2018-09-19T02:37:09.408Z,0.00
2018-09-19T02:38:09.340Z,0.00
2018-09-19T02:40:09.412Z,0.00
2018-09-19T02:41:09.400Z,0.00
2018-09-19T02:42:09.343Z,0.00
2018-09-19T02:43:09.347Z,0.00
2018-09-19T02:44:09.345Z,0.00
2018-09-19T02:45:09.348Z,0.00
2018-09-19T02:46:09.345Z,0.00
2018-09-19T02:47:09.412Z,0.00
2018-09-19T02:48:09.414Z,0.00
2018-09-19T02:49:09.397Z,0.00
2018-09-19T02:50:09.448Z,0.00
2018-09-19T02:51:09.315Z,0.00
2018-09-19T02:52:09.427Z,0.00
2018-09-19T02:53:09.413Z,0.00
2018-09-19T02:54:09.455Z,0.00
2018-09-19T02:55:09.458Z,0.00
2018-09-19T02:56:09.800Z,0.00
2018-09-19T02:57:09.335Z,0.00
2018-09-19T02:58:09.424Z,0.00
2018-09-19T02:59:09.328Z,0.00
2018-09-19T03:00:09.330Z,0.00
2018-09-19T03:01:09.394Z,0.00
2018-09-19T03:02:09.419Z,0.00
2018-09-19T03:03:09.423Z,0.00
2018-09-19T03:04:09.364Z,0.00
2018-09-19T03:05:09.422Z,0.00
2018-09-19T03:06:09.421Z,0.00
2018-09-19T03:07:09.407Z,0.00
2018-09-19T03:08:09.396Z,0.00
2018-09-19T03:09:09.455Z,0.00
2018-09-19T03:10:09.389Z,0.00
2018-09-19T03:11:09.440Z,0.00
2018-09-19T03:12:09.430Z,0.00
2018-09-19T03:13:09.464Z,0.00
2018-09-19T03:14:09.356Z,0.00
2018-09-19T03:15:09.412Z,0.00
2018-09-19T03:16:09.439Z,0.00
2018-09-19T03:17:09.384Z,0.00
2018-09-19T03:18:09.359Z,0.00
2018-09-19T03:19:09.357Z,0.00
2018-09-19T03:20:09.433Z,0.00
2018-09-19T03:21:09.358Z,0.00
2018-09-19T03:22:09.372Z,0.00
2018-09-19T03:23:09.437Z,0.00
2018-09-19T03:24:09.362Z,0.00
2018-09-19T03:25:09.365Z,0.00
2018-09-19T03:26:09.434Z,0.00
2018-09-19T03:27:09.363Z,0.00
2018-09-19T03:28:09.367Z,0.00
2018-09-19T03:29:09.346Z,0.00
2018-09-19T03:30:09.410Z,0.00
2018-09-19T03:31:09.416Z,0.00
2018-09-19T03:32:09.447Z,0.00
2018-09-19T03:33:09.479Z,0.00
2018-09-19T03:34:09.466Z,0.00
2018-09-19T03:35:09.476Z,0.00
2018-09-19T03:36:09.490Z,0.00
2018-09-19T03:37:09.453Z,0.00
2018-09-19T03:38:09.452Z,0.00
2018-09-19T03:39:09.465Z,0.00
2018-09-19T03:40:09.389Z,0.00
2018-09-19T03:41:09.465Z,0.00
2018-09-19T03:42:09.391Z,0.00
2018-09-19T03:43:09.456Z,0.00
2018-09-19T03:44:09.458Z,0.00
2018-09-19T03:45:09.462Z,0.00
2018-09-19T03:46:09.391Z,0.00
2018-09-19T03:47:09.450Z,0.00
2018-09-19T03:48:09.452Z,0.00
2018-09-19T03:49:09.382Z,0.00
2018-09-19T03:50:09.457Z,0.00
2018-09-19T03:51:09.453Z,0.00
2018-09-19T03:52:09.460Z,0.00
2018-09-19T03:53:09.394Z,0.00
2018-09-19T03:54:09.384Z,0.00
2018-09-19T03:55:09.457Z,0.00
2018-09-19T03:56:09.455Z,0.00
2018-09-19T03:57:09.397Z,0.00
2018-09-19T03:58:09.524Z,0.00
2018-09-19T03:59:09.468Z,0.00
2018-09-19T04:00:09.469Z,0.00
2018-09-19T04:01:09.346Z,0.00
2018-09-19T04:02:09.474Z,0.00
2018-09-19T04:03:09.410Z,0.00
2018-09-19T04:04:09.471Z,0.00
2018-09-19T04:05:09.455Z,0.00
2018-09-19T04:06:09.402Z,0.00
2018-09-19T04:07:09.404Z,0.00
2018-09-19T04:08:09.436Z,0.00
2018-09-19T04:09:09.475Z,0.00
2018-09-19T04:10:09.478Z,0.00
2018-09-19T04:11:09.438Z,0.00
2018-09-19T04:12:09.368Z,0.00
2018-09-19T04:13:09.408Z,0.00
2018-09-19T04:14:09.477Z,0.00
2018-09-19T04:15:09.480Z,0.00
2018-09-19T04:16:09.413Z,0.00
2018-09-19T04:17:09.440Z,0.00
2018-09-19T04:18:09.414Z,0.00
2018-09-19T04:19:09.406Z,0.00
2018-09-19T04:20:09.516Z,0.00
2018-09-19T04:21:09.527Z,0.00
2018-09-19T04:22:09.442Z,0.00
2018-09-19T04:23:09.509Z,0.00
2018-09-19T04:24:09.436Z,0.00
2018-09-19T04:25:09.406Z,0.00
2018-09-19T04:26:09.508Z,0.00
2018-09-19T04:27:09.486Z,0.00
2018-09-19T04:28:09.483Z,0.00
2018-09-19T04:29:09.403Z,0.00
2018-09-19T04:30:09.480Z,0.00
2018-09-19T04:31:09.442Z,0.00
2018-09-19T04:32:09.505Z,0.00
2018-09-19T04:33:09.487Z,0.00
2018-09-19T04:34:09.405Z,0.00
2018-09-19T04:35:09.412Z,0.00
2018-09-19T04:36:09.413Z,0.00
2018-09-19T04:37:09.428Z,0.00
2018-09-19T04:38:09.430Z,0.00
2018-09-19T04:39:09.431Z,0.00
2018-09-19T04:40:09.444Z,0.00
2018-09-19T04:41:09.483Z,0.00
2018-09-19T04:42:09.430Z,0.00
2018-09-19T04:43:09.503Z,0.00
2018-09-19T04:44:09.440Z,0.00
2018-09-19T04:45:09.397Z,0.00
2018-09-19T04:46:09.441Z,0.00
2018-09-19T04:47:09.543Z,0.00
2018-09-19T04:48:09.523Z,0.00
2018-09-19T04:49:09.442Z,0.00
2018-09-19T04:50:09.503Z,0.00
2018-09-19T04:51:09.460Z,0.00
2018-09-19T04:52:09.432Z,0.00
2018-09-19T04:53:09.462Z,0.00
2018-09-19T04:54:09.471Z,0.00
2018-09-19T04:55:09.424Z,0.00
2018-09-19T04:56:09.501Z,0.00
2018-09-19T04:57:09.474Z,0.00
2018-09-19T04:58:09.471Z,0.00
2018-09-19T04:59:09.517Z,0.00
2018-09-19T05:00:09.423Z,0.00
2018-09-19T05:01:09.431Z,0.00
2018-09-19T05:02:09.429Z,0.00
2018-09-19T05:03:09.533Z,0.00
2018-09-19T05:04:09.531Z,0.00
2018-09-19T05:05:09.477Z,0.00
2018-09-19T05:06:09.434Z,0.00
2018-09-19T05:07:09.501Z,0.00
2018-09-19T05:08:09.543Z,0.00
2018-09-19T05:09:09.546Z,0.00
2018-09-19T05:10:09.533Z,0.00
2018-09-19T05:11:09.500Z,0.00
2018-09-19T05:12:09.515Z,0.00
2018-09-19T05:13:09.515Z,1.00
2018-09-19T05:14:09.483Z,1.00
2018-09-19T05:15:09.444Z,1.00
2018-09-19T05:16:09.542Z,1.00
2018-09-19T05:17:09.498Z,2.00
2018-09-19T05:18:09.540Z,2.00
2018-09-19T05:19:09.521Z,2.00
2018-09-19T05:20:09.488Z,2.00
2018-09-19T05:21:09.489Z,3.00
2018-09-19T05:22:09.536Z,3.00
2018-09-19T05:23:09.438Z,3.00
2018-09-19T05:24:09.428Z,3.00
2018-09-19T05:25:09.484Z,4.00
2018-09-19T05:26:09.501Z,4.00
2018-09-19T05:27:09.548Z,4.00
2018-09-19T05:28:09.459Z,4.00
2018-09-19T05:29:09.465Z,4.00
2018-09-19T05:30:09.526Z,5.00
2018-09-19T05:31:09.589Z,5.00
2018-09-19T05:32:09.531Z,5.00
2018-09-19T05:33:09.537Z,5.00
2018-09-19T05:34:09.527Z,5.00
2018-09-19T05:35:09.465Z,5.00
2018-09-19T05:36:09.464Z,5.00
2018-09-19T05:37:09.465Z,5.00
2018-09-19T05:38:09.437Z,6.00
2018-09-19T05:39:09.613Z,6.00
2018-09-19T05:40:09.518Z,6.00
2018-09-19T05:41:09.575Z,6.00
2018-09-19T05:42:09.532Z,6.00
2018-09-19T05:43:09.521Z,6.00
2018-09-19T05:44:09.494Z,6.00
2018-09-19T05:45:09.464Z,6.00
2018-09-19T05:46:09.604Z,6.00
2018-09-19T05:47:09.542Z,6.00
2018-09-19T05:48:09.571Z,6.00
2018-09-19T05:49:09.540Z,6.00
2018-09-19T05:50:09.479Z,6.00
2018-09-19T05:51:09.585Z,6.00
2018-09-19T05:52:09.571Z,7.00
2018-09-19T05:53:09.542Z,7.00
2018-09-19T05:54:09.543Z,7.00
2018-09-19T05:55:09.514Z,7.00
2018-09-19T05:56:09.571Z,7.00
2018-09-19T05:57:09.449Z,7.00
2018-09-19T05:58:09.562Z,7.00
2018-09-19T05:59:09.565Z,7.00
2018-09-19T06:00:09.580Z,8.00
2018-09-19T06:01:09.524Z,8.00
2018-09-19T06:02:09.514Z,8.00
2018-09-19T06:03:09.455Z,8.00
2018-09-19T06:04:09.555Z,8.00
2018-09-19T06:05:09.638Z,8.00
2018-09-19T06:06:09.565Z,8.00
2018-09-19T06:07:09.495Z,9.00
2018-09-19T06:08:09.488Z,9.00
2018-09-19T06:09:09.491Z,9.00
2018-09-19T06:10:09.557Z,9.00
2018-09-19T06:11:09.561Z,9.00
2018-09-19T06:12:09.561Z,9.00
2018-09-19T06:13:09.560Z,10.00
2018-09-19T06:14:09.493Z,10.00
2018-09-19T06:15:09.505Z,10.00
2018-09-19T06:16:09.567Z,10.00
2018-09-19T06:17:09.562Z,10.00
2018-09-19T06:18:09.519Z,10.00
2018-09-19T06:19:09.588Z,11.00
2018-09-19T06:20:09.524Z,11.00
2018-09-19T06:21:09.473Z,11.00
2018-09-19T06:22:09.562Z,11.00
2018-09-19T06:23:09.544Z,12.00
2018-09-19T06:24:09.544Z,14.00
2018-09-19T06:25:09.565Z,16.00
2018-09-19T06:26:09.474Z,16.00
2018-09-19T06:27:09.550Z,17.00
2018-09-19T06:28:09.473Z,19.00
2018-09-19T06:29:09.477Z,22.00
2018-09-19T06:30:09.558Z,20.00
2018-09-19T06:31:09.453Z,18.00
2018-09-19T06:32:09.561Z,18.00
2018-09-19T06:33:09.741Z,16.00
2018-09-19T06:34:09.561Z,15.00
2018-09-19T06:35:09.580Z,14.00
2018-09-19T06:36:09.565Z,14.00
2018-09-19T06:37:09.634Z,14.00
2018-09-19T06:38:09.512Z,13.00
2018-09-19T06:39:09.571Z,14.00
2018-09-19T06:40:09.638Z,14.00
2018-09-19T06:41:09.486Z,14.00
2018-09-19T06:42:09.526Z,15.00
2018-09-19T06:43:09.494Z,15.00
2018-09-19T06:44:09.455Z,18.00
2018-09-19T06:45:09.487Z,21.00
2018-09-19T06:46:09.617Z,20.00
2018-09-19T06:47:09.506Z,18.00
2018-09-19T06:48:09.547Z,18.00
2018-09-19T06:49:09.580Z,19.00
2018-09-19T06:50:09.504Z,21.00
2018-09-19T06:51:09.629Z,20.00
2018-09-19T06:52:09.638Z,20.00
2018-09-19T06:53:09.626Z,25.00
2018-09-19T06:54:09.496Z,28.00
2018-09-19T06:55:09.590Z,30.00
2018-09-19T06:56:09.589Z,31.00
2018-09-19T06:57:09.545Z,31.00
2018-09-19T06:58:09.588Z,31.00
2018-09-19T06:59:09.628Z,32.00
2018-09-19T07:00:09.593Z,34.00
2018-09-19T07:01:09.527Z,34.00
2018-09-19T07:02:09.555Z,34.00
2018-09-19T07:03:09.553Z,34.00
2018-09-19T07:04:09.519Z,35.00
2018-09-19T07:05:09.593Z,36.00
2018-09-19T07:06:09.624Z,34.00
2018-09-19T07:07:09.515Z,37.00
2018-09-19T07:08:09.500Z,40.00
2018-09-19T07:09:09.636Z,38.00
2018-09-19T07:10:09.617Z,38.00
2018-09-19T07:11:09.584Z,42.00
2018-09-19T07:12:09.504Z,42.00
2018-09-19T07:13:09.601Z,42.00
2018-09-19T07:14:09.544Z,43.00
2018-09-19T07:15:09.623Z,43.00
2018-09-19T07:16:09.604Z,43.00
2018-09-19T07:17:09.603Z,44.00
2018-09-19T07:18:09.510Z,44.00
2018-09-19T07:19:09.642Z,45.00
2018-09-19T07:20:09.626Z,45.00
2018-09-19T07:21:09.528Z,44.00
2018-09-19T07:22:09.516Z,46.00
2018-09-19T07:23:09.510Z,46.00
2018-09-19T07:24:09.607Z,46.00
2018-09-19T07:25:09.563Z,46.00
2018-09-19T07:26:09.574Z,47.00
2018-09-19T07:27:09.613Z,47.00
2018-09-19T07:28:09.544Z,48.00
2018-09-19T07:29:09.545Z,49.00
2018-09-19T07:30:09.547Z,49.00
2018-09-19T07:31:09.737Z,50.00
2018-09-19T07:32:09.573Z,50.00
2018-09-19T07:33:09.554Z,50.00
2018-09-19T07:34:09.621Z,50.00
2018-09-19T07:35:09.596Z,51.00
2018-09-19T07:36:09.580Z,51.00
2018-09-19T07:37:09.642Z,51.00
2018-09-19T07:38:09.524Z,52.00
2018-09-19T07:39:09.639Z,53.00
2018-09-19T07:40:09.592Z,53.00
2018-09-19T07:41:09.581Z,53.00
2018-09-19T07:42:09.651Z,54.00
2018-09-19T07:43:09.558Z,54.00
2018-09-19T07:44:09.645Z,55.00
2018-09-19T07:45:09.584Z,55.00
2018-09-19T07:46:09.654Z,56.00
2018-09-19T07:47:09.556Z,57.00
2018-09-19T07:48:09.529Z,57.00
2018-09-19T07:49:09.593Z,57.00
2018-09-19T07:50:09.617Z,58.00
2018-09-19T07:51:09.613Z,58.00
2018-09-19T07:52:09.620Z,58.00
2018-09-19T07:53:09.498Z,57.00
2018-09-19T07:54:09.496Z,57.00
2018-09-19T07:55:09.532Z,58.00
2018-09-19T07:56:09.506Z,59.00
2018-09-19T07:57:09.624Z,59.00
2018-09-19T07:58:09.592Z,59.00
2018-09-19T07:59:09.627Z,58.00
2018-09-19T08:00:09.507Z,59.00
2018-09-19T08:01:09.655Z,59.00
2018-09-19T08:02:09.627Z,60.00
2018-09-19T08:03:09.577Z,61.00
2018-09-19T08:04:09.594Z,61.00
2018-09-19T08:05:09.558Z,61.00
2018-09-19T08:06:09.562Z,62.00
2018-09-19T08:07:09.569Z,63.00
2018-09-19T08:08:09.560Z,63.00
2018-09-19T08:09:09.724Z,64.00
2018-09-19T08:10:09.702Z,64.00
2018-09-19T08:11:09.672Z,64.00
2018-09-19T08:12:09.647Z,65.00
2018-09-19T08:13:09.689Z,65.00
2018-09-19T08:14:09.662Z,66.00
2018-09-19T08:15:09.606Z,65.00
2018-09-19T08:16:09.665Z,66.00
2018-09-19T08:17:09.589Z,67.00
2018-09-19T08:18:09.568Z,67.00
2018-09-19T08:19:09.546Z,68.00
2018-09-19T08:20:09.727Z,69.00
2018-09-19T08:21:09.613Z,69.00
2018-09-19T08:22:09.645Z,70.00
2018-09-19T08:23:09.643Z,70.00
2018-09-19T08:24:09.634Z,70.00
2018-09-19T08:25:09.562Z,71.00
2018-09-19T08:26:09.555Z,71.00
2018-09-19T08:27:09.641Z,72.00
2018-09-19T08:28:09.651Z,73.00
2018-09-19T08:29:09.591Z,73.00
2018-09-19T08:30:09.713Z,73.00
2018-09-19T08:31:09.668Z,74.00
2018-09-19T08:32:09.663Z,75.00
2018-09-19T08:33:09.665Z,75.00
2018-09-19T08:34:09.659Z,76.00
2018-09-19T08:35:09.599Z,76.00
2018-09-19T08:36:09.662Z,77.00
2018-09-19T08:37:09.684Z,77.00
2018-09-19T08:38:09.595Z,77.00
2018-09-19T08:39:09.662Z,77.00
2018-09-19T08:40:09.765Z,77.00
2018-09-19T08:41:09.662Z,78.00
2018-09-19T08:42:09.663Z,79.00
2018-09-19T08:43:09.599Z,79.00
2018-09-19T08:44:09.599Z,79.00
2018-09-19T08:45:09.670Z,80.00
2018-09-19T08:46:09.597Z,81.00
2018-09-19T08:47:09.599Z,81.00
2018-09-19T08:48:09.715Z,82.00
2018-09-19T08:49:09.690Z,83.00
2018-09-19T08:50:09.567Z,83.00
2018-09-19T08:51:09.666Z,83.00
2018-09-19T08:52:09.671Z,84.00
2018-09-19T08:53:09.672Z,85.00
2018-09-19T08:54:09.641Z,85.00
2018-09-19T08:55:09.628Z,86.00
2018-09-19T08:56:09.693Z,86.00
2018-09-19T08:57:09.685Z,85.00
2018-09-19T08:58:09.619Z,85.00
2018-09-19T08:59:09.609Z,85.00
2018-09-19T09:00:09.610Z,86.00
2018-09-19T09:01:09.608Z,86.00
2018-09-19T09:02:09.645Z,87.00
2018-09-19T09:03:09.612Z,87.00
2018-09-19T09:04:09.613Z,87.00
2018-09-19T09:05:09.747Z,87.00
2018-09-19T09:06:09.680Z,88.00
2018-09-19T09:07:09.611Z,88.00
2018-09-19T09:08:09.702Z,89.00
2018-09-19T09:09:09.646Z,89.00
2018-09-19T09:10:09.628Z,90.00
2018-09-19T09:11:09.682Z,90.00
2018-09-19T09:12:09.686Z,90.00
2018-09-19T09:13:09.723Z,90.00
2018-09-19T09:14:09.700Z,90.00
2018-09-19T09:15:09.658Z,90.00
2018-09-19T09:16:09.727Z,90.00
2018-09-19T09:17:09.588Z,90.00
2018-09-19T09:18:09.685Z,89.00
2018-09-19T09:19:09.691Z,90.00
2018-09-19T09:20:09.686Z,90.00
2018-09-19T09:21:09.692Z,91.00
2018-09-19T09:22:09.685Z,91.00
2018-09-19T09:23:09.717Z,91.00
2018-09-19T09:24:09.693Z,91.00
2018-09-19T09:25:09.696Z,91.00
2018-09-19T09:26:09.708Z,91.00
2018-09-19T09:27:09.728Z,92.00
2018-09-19T09:28:09.723Z,92.00
2018-09-19T09:29:09.690Z,93.00
2018-09-19T09:30:09.614Z,92.00
2018-09-19T09:31:09.673Z,93.00
2018-09-19T09:32:09.663Z,93.00
2018-09-19T09:33:09.696Z,93.00
2018-09-19T09:34:09.653Z,93.00
2018-09-19T09:35:09.738Z,93.00
2018-09-19T09:36:09.722Z,94.00
2018-09-19T09:37:09.660Z,93.00
2018-09-19T09:38:09.568Z,94.00
2018-09-19T09:39:09.663Z,94.00
2018-09-19T09:40:09.689Z,94.00
2018-09-19T09:41:09.622Z,94.00
2018-09-19T09:42:09.590Z,95.00
2018-09-19T09:43:09.686Z,94.00
2018-09-19T09:44:09.638Z,95.00
2018-09-19T09:45:09.664Z,96.00
2018-09-19T09:46:09.704Z,96.00
2018-09-19T09:47:09.668Z,96.00
2018-09-19T09:48:09.708Z,96.00
2018-09-19T09:49:09.746Z,97.00
2018-09-19T09:50:09.736Z,96.00
2018-09-19T09:51:09.606Z,97.00
2018-09-19T09:52:09.687Z,97.00
2018-09-19T09:53:09.747Z,97.00
2018-09-19T09:54:09.616Z,97.00
2018-09-19T09:55:09.776Z,97.00
2018-09-19T09:56:09.633Z,97.00
2018-09-19T09:57:09.692Z,97.00
2018-09-19T09:58:09.656Z,98.00
2018-09-19T09:59:09.667Z,99.00
2018-09-19T10:00:09.605Z,98.00
2018-09-19T10:01:09.698Z,99.00
2018-09-19T10:02:09.583Z,98.00
2018-09-19T10:03:09.714Z,98.00
2018-09-19T10:04:09.626Z,99.00
2018-09-19T10:05:09.620Z,98.00
2018-09-19T10:06:09.624Z,99.00
2018-09-19T10:07:09.629Z,99.00
2018-09-19T10:08:09.701Z,99.00
2018-09-19T10:09:09.698Z,99.00
2018-09-19T10:10:09.747Z,99.00
2018-09-19T10:11:09.642Z,99.00
2018-09-19T10:12:09.696Z,99.00
2018-09-19T10:13:09.645Z,99.00
2018-09-19T10:14:09.631Z,99.00
2018-09-19T10:15:09.705Z,99.00
2018-09-19T10:16:09.725Z,99.00
2018-09-19T10:17:09.697Z,99.00
2018-09-19T10:18:09.624Z,99.00
2018-09-19T10:19:09.710Z,99.00
2018-09-19T10:20:09.665Z,99.00
2018-09-19T10:21:09.592Z,99.00
2018-09-19T10:22:09.629Z,99.00
2018-09-19T10:23:09.624Z,99.00
2018-09-19T10:24:09.618Z,99.00
2018-09-19T10:25:09.716Z,99.00
2018-09-19T10:26:09.719Z,99.00
2018-09-19T10:27:09.688Z,99.00
2018-09-19T10:28:09.670Z,99.00
2018-09-19T10:29:09.737Z,99.00
2018-09-19T10:30:09.740Z,99.00
2018-09-19T10:31:09.737Z,99.00
2018-09-19T10:32:09.739Z,99.00
2018-09-19T10:33:09.746Z,99.00
2018-09-19T10:34:09.680Z,99.00
2018-09-19T10:35:09.777Z,99.00
2018-09-19T10:36:09.746Z,99.00
2018-09-19T10:37:09.742Z,99.00
2018-09-19T10:38:09.753Z,99.00
2018-09-19T10:39:09.746Z,99.00
2018-09-19T10:40:09.680Z,99.00
2018-09-19T10:41:09.756Z,99.00
2018-09-19T10:42:09.752Z,99.00
2018-09-19T10:43:09.684Z,99.00
2018-09-19T10:44:09.682Z,99.00
2018-09-19T10:45:09.752Z,99.00
2018-09-19T10:46:09.748Z,99.00
2018-09-19T10:47:09.684Z,99.00
2018-09-19T10:48:09.649Z,99.00
2018-09-19T10:49:09.732Z,99.00
2018-09-19T10:50:09.757Z,99.00
2018-09-19T10:51:09.713Z,99.00
2018-09-19T10:52:09.717Z,99.00
2018-09-19T10:53:09.708Z,99.00
2018-09-19T10:54:09.728Z,99.00
2018-09-19T10:55:09.772Z,99.00
2018-09-19T10:56:09.676Z,99.00
2018-09-19T10:57:09.787Z,99.00
2018-09-19T10:58:09.665Z,99.00
2018-09-19T10:59:09.649Z,99.00
2018-09-19T11:00:09.666Z,99.00
2018-09-19T11:01:09.643Z,99.00
2018-09-19T11:02:09.680Z,99.00
2018-09-19T11:03:09.631Z,99.00
2018-09-19T11:04:09.761Z,99.00
2018-09-19T11:05:09.666Z,99.00
2018-09-19T11:06:09.685Z,99.00
2018-09-19T11:07:09.759Z,99.00
2018-09-19T11:08:09.701Z,99.00
2018-09-19T11:09:09.800Z,99.00
2018-09-19T11:10:09.704Z,99.00
2018-09-19T11:11:09.705Z,99.00
2018-09-19T11:12:09.772Z,99.00
2018-09-19T11:13:09.704Z,99.00
2018-09-19T11:14:09.704Z,99.00
2018-09-19T11:15:09.702Z,99.00
2018-09-19T11:16:09.772Z,99.00
2018-09-19T11:17:09.716Z,99.00
2018-09-19T11:18:09.805Z,99.00
2018-09-19T11:19:09.742Z,99.00
2018-09-19T11:20:09.794Z,99.00
2018-09-19T11:21:09.731Z,99.00
2018-09-19T11:22:09.817Z,99.00
2018-09-19T11:23:09.796Z,99.00
2018-09-19T11:24:09.681Z,99.00
2018-09-19T11:25:09.738Z,99.00
2018-09-19T11:26:09.811Z,99.00
2018-09-19T11:27:09.777Z,99.00
2018-09-19T11:28:09.717Z,99.00
2018-09-19T11:29:09.696Z,99.00
2018-09-19T11:30:09.798Z,99.00
2018-09-19T11:31:09.720Z,99.00
2018-09-19T11:32:09.815Z,99.00
2018-09-19T11:33:09.783Z,99.00
2018-09-19T11:34:09.681Z,99.00
2018-09-19T11:35:09.799Z,99.00
2018-09-19T11:36:09.722Z,99.00
2018-09-19T11:37:09.688Z,99.00
2018-09-19T11:38:09.754Z,99.00
2018-09-19T11:39:09.741Z,99.00
2018-09-19T11:40:09.708Z,99.00
2018-09-19T11:41:09.681Z,99.00
2018-09-19T11:42:09.780Z,99.00
2018-09-19T11:43:09.714Z,99.00
2018-09-19T11:44:09.683Z,97.00
2018-09-19T11:45:09.747Z,97.00
2018-09-19T11:46:09.772Z,91.00
2018-09-19T11:47:09.716Z,96.00
2018-09-19T11:48:09.651Z,99.00
2018-09-19T11:49:09.726Z,98.00
2018-09-19T11:50:09.801Z,99.00
2018-09-19T11:51:09.728Z,99.00
2018-09-19T11:52:09.802Z,99.00
2018-09-19T11:53:09.732Z,99.00
2018-09-19T11:54:09.805Z,99.00
2018-09-19T11:55:09.803Z,99.00
2018-09-19T11:56:09.809Z,96.00
2018-09-19T11:57:09.801Z,95.00
2018-09-19T11:58:09.816Z,95.00
2018-09-19T11:59:09.763Z,95.00
2018-09-19T12:00:09.807Z,95.00
2018-09-19T12:01:09.739Z,96.00
2018-09-19T12:02:09.839Z,96.00
2018-09-19T12:03:09.737Z,98.00
2018-09-19T12:04:09.742Z,98.00
2018-09-19T12:05:09.808Z,99.00
2018-09-19T12:06:09.738Z,99.00
2018-09-19T12:07:09.746Z,99.00
2018-09-19T12:08:09.803Z,99.00
2018-09-19T12:09:09.810Z,98.00
2018-09-19T12:10:09.815Z,98.00
2018-09-19T12:11:09.808Z,97.00
2018-09-19T12:12:09.813Z,97.00
2018-09-19T12:13:09.819Z,98.00
2018-09-19T12:14:09.745Z,98.00
2018-09-19T12:15:09.745Z,98.00
2018-09-19T12:16:09.814Z,98.00
2018-09-19T12:17:09.813Z,99.00
2018-09-19T12:18:09.820Z,98.00
2018-09-19T12:19:09.796Z,97.00
2018-09-19T12:20:09.890Z,99.00
2018-09-19T12:21:09.735Z,97.00
2018-09-19T12:22:09.799Z,98.00
2018-09-19T12:23:09.720Z,98.00
2018-09-19T12:24:09.754Z,98.00
2018-09-19T12:25:09.727Z,98.00
2018-09-19T12:26:09.836Z,96.00
2018-09-19T12:27:09.784Z,91.00
2018-09-19T12:28:09.845Z,91.00
2018-09-19T12:29:09.724Z,94.00
2018-09-19T12:30:09.854Z,93.00
2018-09-19T12:31:09.840Z,93.00
2018-09-19T12:32:09.850Z,92.00
2018-09-19T12:33:09.853Z,93.00
2018-09-19T12:34:09.849Z,93.00
2018-09-19T12:35:09.850Z,92.00
2018-09-19T12:36:09.863Z,96.00
2018-09-19T12:37:09.851Z,95.00
2018-09-19T12:38:09.732Z,56.00
2018-09-19T12:39:09.852Z,72.00
2018-09-19T12:40:09.851Z,92.00
2018-09-19T12:41:09.836Z,93.00
2018-09-19T12:42:09.733Z,92.00
2018-09-19T12:43:09.829Z,92.00
2018-09-19T12:44:09.751Z,94.00
2018-09-19T12:45:09.795Z,93.00
2018-09-19T12:46:09.848Z,92.00
2018-09-19T12:47:09.739Z,92.00
2018-09-19T12:48:09.834Z,93.00
2018-09-19T12:49:09.811Z,49.00
2018-09-19T12:50:09.840Z,95.00
2018-09-19T12:51:09.806Z,95.00
2018-09-19T12:52:09.838Z,96.00
2018-09-19T12:53:09.810Z,96.00
2018-09-19T12:54:09.760Z,81.00
2018-09-19T12:55:09.845Z,69.00
2018-09-19T12:56:09.817Z,42.00
2018-09-19T12:57:09.809Z,94.00
2018-09-19T12:58:09.868Z,31.00
2018-09-19T12:59:09.703Z,95.00
2018-09-19T13:00:09.792Z,92.00
2018-09-19T13:01:09.790Z,92.00
2018-09-19T13:02:09.697Z,91.00
2018-09-19T13:03:09.791Z,92.00
2018-09-19T13:04:09.749Z,90.00
2018-09-19T13:05:09.790Z,96.00